Beaverton, OR (97005)

9:38 AM PDT on September 05, 2015 (GMT -0700)
Walker/217 | | Change Station
CLOSE
Current Station
Personal Weather Station
Location: Beaverton, OR
Elevation: 223 ft
Nearby Weather Stations

Elev 223 ft 45.50 °N, 122.79 °W | Updated 5 seconds ago

Overcast
Overcast
54.7 °F
Feels Like 54.7 °F
N
0.4
Wind Variable Wind from ESE
Gusts 1.6 mph

Today
High -- | Low -- °F
--% Chance of Precip.
Yesterday
High -- | Low -- °F
Precip. -- in
6:37 AM 7:41 PM
Waning Gibbous, 47% visible
Pressure 30.14 in
Visibility 10.0 miles
Clouds Overcast 7500 ft
Dew Point 48 °F
Humidity 79%
Rainfall 0.00 in
Snow Depth Not available.
UV 1 out of 12
Pollen 3.60 out of 12
Air Quality Not available.
Flu Activity Not available.
METAR KHIO 051553Z 00000KT 10SM OVC075 10/08 A3014 RMK AO2 SLP207 T01000078
Pressure 30.14 in
Visibility 10.0 miles
Clouds Overcast 7500 ft
Dew Point 48 °F
Humidity 79%
Rainfall 0.00 in
Snow Depth Not available.
UV 1 out of 12
Pollen 3.60 out of 12
Air Quality Not available.
Flu Activity Not available.
METAR KHIO 051553Z 00000KT 10SM OVC075 10/08 A3014 RMK AO2 SLP207 T01000078

10-Day Weather Forecast

×

Almanac

Astronomy

Sep. 05, 2015 Rise Set
Actual Time
Civil Twilight
Nautical Twilight
Astronomical Twilight
Moon
Length of Visible Light
Length of Day
Tomorrow will be .
, % of the Moon is Illuminated

Today's Extremes

State Highs State Lows

Community

WunderPhotos

Upload Photos

1,852,495 photos uploaded!

WunderBlogs® & News

Nearby

Air Quality

  Air Quality AQ Index Pollutant
Not available.

Snow Depth

Station Depth Elevation

Earthquake Activity

City Distance Mag. Time & Date
Minimum magnitude displayed is 2.5.

Coastal Water Temperatures

Place Temperature

Stations

Nearby Weather Stations

Station Location Temp. Windchill Dew Point Humidity Wind Precip. Elev Updated Type